createdAt,value
2022-08-28T00:01:44.539Z,15.80
2022-08-28T00:04:46.559Z,16.75
2022-08-28T00:07:49.308Z,16.20
2022-08-28T00:10:51.670Z,15.90
2022-08-28T00:13:53.801Z,15.50
2022-08-28T00:16:58.823Z,15.75
2022-08-28T00:20:00.969Z,16.17
2022-08-28T00:23:03.049Z,16.95
2022-08-28T00:26:05.204Z,16.88
2022-08-28T00:29:08.325Z,16.88
2022-08-28T00:32:10.959Z,15.70
2022-08-28T00:35:12.914Z,15.90
2022-08-28T00:38:18.671Z,16.98
2022-08-28T00:41:24.875Z,18.00
2022-08-28T00:44:28.889Z,16.38
2022-08-28T00:47:30.939Z,16.65
2022-08-28T00:50:56.813Z,16.35
2022-08-28T00:54:07.361Z,16.33
2022-08-28T00:57:15.059Z,16.95
2022-08-28T01:00:27.537Z,17.20
2022-08-28T01:03:29.668Z,16.15
2022-08-28T01:06:32.062Z,15.73
2022-08-28T01:09:37.738Z,17.63
2022-08-28T01:12:40.684Z,16.88
2022-08-28T01:15:43.284Z,16.10
2022-08-28T01:18:46.934Z,16.63
2022-08-28T01:22:17.608Z,16.88
2022-08-28T01:25:22.298Z,15.95
2022-08-28T01:28:24.521Z,16.88
2022-08-28T01:31:28.943Z,15.77
2022-08-28T01:34:31.652Z,17.13
2022-08-28T01:37:33.595Z,17.15
2022-08-28T01:40:40.010Z,17.52
2022-08-28T01:43:43.461Z,15.75
2022-08-28T01:46:46.045Z,17.25
2022-08-28T01:49:48.278Z,16.73
2022-08-28T01:52:50.384Z,16.98
2022-08-28T01:55:54.683Z,16.27
2022-08-28T01:58:56.888Z,16.80
2022-08-28T02:01:58.973Z,15.45
2022-08-28T02:05:01.116Z,16.60
2022-08-28T02:08:04.716Z,15.75
2022-08-28T02:11:07.402Z,15.55
2022-08-28T02:14:09.721Z,16.02
2022-08-28T02:17:12.128Z,16.30
2022-08-28T02:20:14.636Z,15.93
2022-08-28T02:23:16.998Z,15.15
2022-08-28T02:26:20.876Z,16.27
2022-08-28T02:29:23.586Z,15.23
2022-08-28T02:32:27.016Z,15.65
2022-08-28T02:35:31.290Z,14.73
2022-08-28T02:38:33.304Z,14.73
2022-08-28T02:41:35.506Z,15.32
2022-08-28T02:44:37.552Z,14.90
2022-08-28T02:47:42.387Z,15.13
2022-08-28T02:50:45.202Z,15.13
2022-08-28T02:53:47.375Z,13.93
2022-08-28T02:56:49.819Z,14.68
2022-08-28T02:59:51.879Z,14.52
2022-08-28T03:02:54.364Z,15.05
2022-08-28T03:05:57.165Z,14.45
2022-08-28T03:08:59.969Z,14.50
2022-08-28T03:12:02.362Z,14.60
2022-08-28T03:15:06.101Z,14.85
2022-08-28T03:18:11.128Z,15.00
2022-08-28T03:21:13.557Z,14.52
2022-08-28T03:24:15.818Z,15.52
2022-08-28T03:27:18.181Z,15.05
2022-08-28T03:30:21.794Z,15.75
2022-08-28T03:33:24.814Z,15.30
2022-08-28T03:36:28.510Z,14.98
2022-08-28T03:39:30.463Z,17.23
2022-08-28T03:42:33.945Z,15.32
2022-08-28T03:45:35.925Z,16.70
2022-08-28T03:48:38.600Z,17.98
2022-08-28T03:51:45.477Z,16.30
2022-08-28T03:54:48.090Z,17.10
2022-08-28T03:57:51.571Z,16.77
2022-08-28T04:00:54.174Z,17.52
2022-08-28T04:03:57.042Z,18.90
2022-08-28T04:06:59.921Z,17.55
2022-08-28T04:10:02.144Z,18.10
2022-08-28T04:13:04.256Z,19.23
2022-08-28T04:16:12.134Z,17.85
2022-08-28T04:19:14.322Z,19.52
2022-08-28T04:22:16.418Z,19.45
2022-08-28T04:25:21.465Z,18.77
2022-08-28T04:28:24.323Z,18.27
2022-08-28T04:31:32.335Z,19.10
2022-08-28T04:34:36.640Z,19.42
2022-08-28T04:37:39.866Z,19.00
2022-08-28T04:40:43.116Z,19.42
2022-08-28T04:43:45.410Z,19.45
2022-08-28T04:46:48.406Z,20.00
2022-08-28T04:49:50.705Z,20.70
2022-08-28T04:52:52.639Z,21.27
2022-08-28T04:55:55.977Z,20.80
2022-08-28T04:58:58.448Z,19.58
2022-08-28T05:02:00.564Z,22.13
2022-08-28T05:05:03.293Z,22.83
2022-08-28T05:08:05.383Z,22.17
2022-08-28T05:11:13.813Z,22.58
2022-08-28T05:14:32.914Z,23.75
2022-08-28T05:17:34.826Z,23.65
2022-08-28T05:20:42.425Z,22.75
2022-08-28T05:23:44.457Z,23.50
2022-08-28T05:26:48.319Z,23.75
2022-08-28T05:29:50.996Z,24.05
2022-08-28T05:32:53.927Z,24.23
2022-08-28T05:35:55.885Z,24.00
2022-08-28T05:38:58.542Z,23.40
2022-08-28T05:42:00.505Z,24.88
2022-08-28T05:45:02.625Z,23.67
2022-08-28T05:48:05.618Z,23.70
2022-08-28T05:51:14.529Z,23.48
2022-08-28T05:54:17.148Z,22.65
2022-08-28T05:57:19.230Z,23.58
2022-08-28T06:00:21.466Z,22.70
2022-08-28T06:03:23.596Z,22.27
2022-08-28T06:06:27.604Z,21.60
2022-08-28T06:09:30.332Z,21.00
2022-08-28T06:12:32.538Z,20.75
2022-08-28T06:15:40.912Z,21.30
2022-08-28T06:18:42.840Z,22.27
2022-08-28T06:21:48.081Z,21.58
2022-08-28T06:24:50.016Z,21.67
2022-08-28T06:27:52.126Z,21.98
2022-08-28T06:31:22.963Z,22.02
2022-08-28T06:34:19.254Z,19.92
2022-08-28T06:37:21.255Z,21.48
2022-08-28T06:40:23.440Z,21.98
2022-08-28T06:43:28.258Z,20.08
2022-08-28T06:46:33.178Z,19.88
2022-08-28T06:49:35.681Z,19.25
2022-08-28T06:52:38.214Z,19.00
2022-08-28T06:55:44.258Z,18.90
2022-08-28T06:58:50.248Z,19.08
2022-08-28T07:01:55.428Z,18.40
2022-08-28T07:04:57.645Z,17.77
2022-08-28T07:07:59.831Z,18.30
2022-08-28T07:11:14.789Z,18.73
2022-08-28T07:14:17.109Z,16.92
2022-08-28T07:17:19.351Z,15.77
2022-08-28T07:20:21.323Z,17.60
2022-08-28T07:23:26.077Z,16.10
2022-08-28T07:26:28.133Z,16.58
2022-08-28T07:29:31.278Z,17.38
2022-08-28T07:32:34.017Z,16.67
2022-08-28T07:35:36.152Z,17.45
2022-08-28T07:38:38.503Z,16.52
2022-08-28T07:41:42.741Z,16.77
2022-08-28T07:44:50.925Z,16.00
2022-08-28T07:47:53.003Z,16.00
2022-08-28T07:50:55.467Z,16.85
2022-08-28T07:53:57.880Z,15.77
2022-08-28T07:57:00.014Z,15.85
2022-08-28T08:00:02.540Z,15.65
2022-08-28T08:03:05.050Z,14.80
2022-08-28T08:06:08.051Z,14.57
2022-08-28T08:09:13.847Z,14.18
2022-08-28T08:12:16.012Z,14.85
2022-08-28T08:15:17.987Z,14.80
2022-08-28T08:18:20.841Z,14.68
2022-08-28T08:21:30.076Z,13.80
2022-08-28T08:24:32.997Z,14.15
2022-08-28T08:27:38.810Z,15.70
2022-08-28T08:30:43.669Z,15.02
2022-08-28T08:33:48.548Z,15.30
2022-08-28T08:36:50.652Z,14.75
2022-08-28T08:39:53.817Z,13.65
2022-08-28T08:42:57.146Z,15.23
2022-08-28T08:45:59.237Z,13.30
2022-08-28T08:49:05.859Z,14.02
2022-08-28T08:52:19.120Z,14.27
2022-08-28T08:55:32.054Z,14.27
2022-08-28T08:58:42.826Z,14.05
2022-08-28T09:02:14.029Z,12.40
2022-08-28T09:05:47.046Z,13.05
2022-08-28T09:08:56.978Z,13.23
2022-08-28T09:12:03.065Z,12.20
2022-08-28T09:15:17.592Z,11.50
2022-08-28T09:18:31.047Z,12.73
2022-08-28T09:21:41.106Z,12.25
2022-08-28T09:24:43.088Z,12.30
2022-08-28T09:27:47.634Z,12.57
2022-08-28T09:30:57.526Z,11.75
2022-08-28T09:34:17.226Z,12.25
2022-08-28T09:37:27.034Z,12.50
2022-08-28T09:40:50.584Z,12.75
2022-08-28T09:43:52.791Z,12.05
2022-08-28T09:46:54.933Z,12.18
2022-08-28T09:50:23.277Z,11.95
2022-08-28T09:53:28.419Z,12.00
2022-08-28T09:56:33.650Z,11.75
2022-08-28T09:59:35.876Z,13.07
2022-08-28T10:02:58.212Z,12.40
2022-08-28T10:06:08.683Z,13.50
2022-08-28T10:09:19.526Z,12.32
2022-08-28T10:12:45.773Z,12.57
2022-08-28T10:16:22.628Z,13.52
2022-08-28T10:19:32.279Z,13.25
2022-08-28T10:22:40.385Z,13.05
2022-08-28T10:26:03.300Z,13.60
2022-08-28T10:29:22.351Z,12.60
2022-08-28T10:32:43.041Z,13.68
2022-08-28T10:36:03.262Z,13.68
2022-08-28T10:39:12.389Z,13.27
2022-08-28T10:42:22.836Z,13.65
2022-08-28T10:45:30.586Z,14.35
2022-08-28T10:48:41.274Z,14.15
2022-08-28T10:51:49.753Z,13.40
2022-08-28T10:55:01.518Z,12.93
2022-08-28T10:58:24.523Z,13.18
2022-08-28T11:01:36.631Z,12.48
2022-08-28T11:04:39.013Z,13.27
2022-08-28T11:07:47.663Z,12.50
2022-08-28T11:10:53.160Z,13.32
2022-08-28T11:13:58.082Z,12.85
2022-08-28T11:17:04.957Z,12.80
2022-08-28T11:20:13.262Z,13.45
2022-08-28T11:23:22.560Z,13.90
2022-08-28T11:26:38.795Z,13.85
2022-08-28T11:30:01.468Z,14.48
2022-08-28T11:33:28.421Z,14.80
2022-08-28T11:36:32.392Z,14.35
2022-08-28T11:39:34.507Z,15.02
2022-08-28T11:42:37.688Z,14.13
2022-08-28T11:45:46.517Z,15.43
2022-08-28T11:48:52.377Z,15.57
2022-08-28T11:51:57.099Z,18.38
2022-08-28T11:54:59.393Z,19.52
2022-08-28T11:58:17.025Z,14.65
2022-08-28T12:01:35.452Z,20.95
2022-08-28T12:04:42.676Z,16.00
2022-08-28T12:07:50.191Z,14.48
2022-08-28T12:10:58.015Z,18.83
2022-08-28T12:14:03.507Z,16.17
2022-08-28T12:17:05.801Z,16.33
2022-08-28T12:20:33.835Z,14.18
2022-08-28T12:23:39.882Z,13.23
2022-08-28T12:26:50.358Z,14.00
2022-08-28T12:29:55.239Z,15.85
2022-08-28T12:33:18.382Z,13.27
2022-08-28T12:36:26.785Z,13.05
2022-08-28T12:39:31.551Z,12.48
2022-08-28T12:42:38.074Z,12.63
2022-08-28T12:45:51.618Z,14.15
2022-08-28T12:48:58.639Z,13.38
2022-08-28T12:52:17.248Z,11.45
2022-08-28T12:55:24.224Z,11.55
2022-08-28T12:58:33.938Z,11.32
2022-08-28T13:01:35.941Z,10.50
2022-08-28T13:04:42.132Z,10.57
2022-08-28T13:07:50.896Z,10.48
2022-08-28T13:10:53.215Z,9.43
2022-08-28T13:13:56.562Z,9.50
2022-08-28T13:16:58.774Z,9.70
2022-08-28T13:20:07.687Z,9.15
2022-08-28T13:23:29.130Z,8.50
2022-08-28T13:26:33.695Z,8.60
2022-08-28T13:29:37.018Z,8.48
2022-08-28T13:32:40.091Z,8.82
2022-08-28T13:35:42.850Z,8.85
2022-08-28T13:38:44.921Z,7.88
2022-08-28T13:41:50.516Z,8.48
2022-08-28T13:44:55.921Z,7.68
2022-08-28T13:47:58.006Z,7.70
2022-08-28T13:51:05.544Z,6.70
2022-08-28T13:54:12.893Z,9.52
2022-08-28T13:57:15.704Z,7.75
2022-08-28T14:00:18.092Z,7.63
2022-08-28T14:03:35.790Z,7.30
2022-08-28T14:06:37.935Z,8.05
2022-08-28T14:09:40.216Z,7.45
2022-08-28T14:12:43.627Z,7.43
2022-08-28T14:15:46.464Z,7.18
2022-08-28T14:18:48.620Z,6.82
2022-08-28T14:21:50.723Z,5.47
2022-08-28T14:24:52.989Z,5.90
2022-08-28T14:27:55.812Z,5.07
2022-08-28T14:30:57.961Z,5.30
2022-08-28T14:33:59.958Z,5.25
2022-08-28T14:37:02.996Z,4.85
2022-08-28T14:40:06.362Z,5.28
2022-08-28T14:43:10.123Z,4.25
2022-08-28T14:46:17.209Z,4.72
2022-08-28T14:49:20.772Z,4.72
2022-08-28T14:52:22.904Z,4.25
2022-08-28T14:55:26.358Z,4.80
2022-08-28T14:58:28.252Z,4.90
2022-08-28T15:01:39.819Z,3.92
2022-08-28T15:04:43.124Z,4.20
2022-08-28T15:07:45.698Z,4.40
2022-08-28T15:10:48.596Z,4.85
2022-08-28T15:13:52.389Z,4.55
2022-08-28T15:16:54.422Z,4.20
2022-08-28T15:19:56.661Z,4.38
2022-08-28T15:22:58.673Z,4.30
2022-08-28T15:26:00.947Z,4.40
2022-08-28T15:29:04.165Z,4.38
2022-08-28T15:32:06.984Z,4.45
2022-08-28T15:35:09.325Z,4.40
2022-08-28T15:38:11.590Z,4.70
2022-08-28T15:41:25.488Z,4.45
2022-08-28T15:44:28.599Z,4.20
2022-08-28T15:47:30.627Z,4.00
2022-08-28T15:50:32.998Z,3.75
2022-08-28T15:53:35.452Z,3.47
2022-08-28T15:56:37.634Z,3.97
2022-08-28T15:59:50.176Z,4.15
2022-08-28T16:02:55.805Z,4.63
2022-08-28T16:05:57.777Z,3.47
2022-08-28T16:09:00.013Z,4.00
2022-08-28T16:12:01.947Z,4.03
2022-08-28T16:15:04.655Z,3.72
2022-08-28T16:18:09.014Z,3.47
2022-08-28T16:21:12.341Z,3.70
2022-08-28T16:24:14.280Z,3.47
2022-08-28T16:27:16.828Z,3.50
2022-08-28T16:30:18.956Z,3.60
2022-08-28T16:33:22.295Z,3.67
2022-08-28T16:36:25.236Z,4.18
2022-08-28T16:39:28.095Z,4.57
2022-08-28T16:42:32.843Z,4.30
2022-08-28T16:45:37.304Z,3.90
2022-08-28T16:48:40.337Z,3.58
2022-08-28T16:51:42.529Z,3.42
2022-08-28T16:54:48.446Z,3.45
2022-08-28T16:57:52.327Z,3.60
2022-08-28T17:00:54.994Z,3.38
2022-08-28T17:03:59.156Z,3.50
2022-08-28T17:07:01.780Z,3.30
2022-08-28T17:10:04.758Z,3.20
2022-08-28T17:13:06.654Z,3.15
2022-08-28T17:16:10.109Z,3.17
2022-08-28T17:19:12.127Z,3.25
2022-08-28T17:22:32.551Z,3.05
2022-08-28T17:25:34.578Z,3.05
2022-08-28T17:28:36.791Z,3.10
2022-08-28T17:31:39.160Z,3.10
2022-08-28T17:34:41.561Z,2.72
2022-08-28T17:37:44.698Z,3.15
2022-08-28T17:40:46.888Z,3.10
2022-08-28T17:43:48.799Z,3.40
2022-08-28T17:46:51.813Z,3.25
2022-08-28T17:49:53.819Z,3.10
2022-08-28T17:52:55.950Z,3.08
2022-08-28T17:55:58.345Z,3.05
2022-08-28T17:59:00.550Z,3.75
2022-08-28T18:02:02.651Z,3.33
2022-08-28T18:05:07.288Z,3.00
2022-08-28T18:08:09.508Z,3.00
2022-08-28T18:11:13.473Z,2.80
2022-08-28T18:14:15.627Z,3.08
2022-08-28T18:17:19.427Z,2.60
2022-08-28T18:20:21.746Z,2.85
2022-08-28T18:23:24.039Z,3.13
2022-08-28T18:26:26.157Z,3.30
2022-08-28T18:29:28.721Z,3.22
2022-08-28T18:32:30.890Z,2.90
2022-08-28T18:35:33.721Z,3.42
2022-08-28T18:38:36.940Z,2.85
2022-08-28T18:41:43.813Z,3.60
2022-08-28T18:44:46.937Z,3.15
2022-08-28T18:47:48.928Z,7.63
2022-08-28T18:50:51.162Z,3.45
2022-08-28T18:53:53.231Z,3.10
2022-08-28T18:57:01.351Z,3.28
2022-08-28T19:00:06.984Z,3.67
2022-08-28T19:03:09.381Z,3.75
2022-08-28T19:06:15.840Z,3.67
2022-08-28T19:09:20.701Z,4.00
2022-08-28T19:12:23.177Z,3.72
2022-08-28T19:15:25.261Z,3.55
2022-08-28T19:18:28.694Z,3.78
2022-08-28T19:21:30.876Z,3.67
2022-08-28T19:24:36.308Z,3.78
2022-08-28T19:27:39.255Z,4.18
2022-08-28T19:30:41.398Z,4.00
2022-08-28T19:33:44.471Z,3.67
2022-08-28T19:36:46.492Z,4.50
2022-08-28T19:39:48.598Z,4.30
2022-08-28T19:42:58.557Z,4.80
2022-08-28T19:46:09.347Z,4.63
2022-08-28T19:49:16.381Z,4.97
2022-08-28T19:52:19.066Z,4.68
2022-08-28T19:55:25.968Z,4.90
2022-08-28T19:58:28.408Z,5.10
2022-08-28T20:01:33.049Z,4.80
2022-08-28T20:04:36.203Z,5.13
2022-08-28T20:07:38.111Z,4.90
2022-08-28T20:10:41.421Z,4.55
2022-08-28T20:13:43.797Z,4.85
2022-08-28T20:16:48.528Z,4.75
2022-08-28T20:19:50.623Z,5.07
2022-08-28T20:22:54.150Z,4.72
2022-08-28T20:25:56.636Z,4.63
2022-08-28T20:28:58.702Z,5.00
2022-08-28T20:32:01.279Z,4.88
2022-08-28T20:35:07.067Z,5.10
2022-08-28T20:38:11.045Z,4.95
2022-08-28T20:41:18.315Z,4.97
2022-08-28T20:44:21.585Z,4.90
2022-08-28T20:47:23.687Z,5.32
2022-08-28T20:50:25.571Z,4.90
2022-08-28T20:53:37.594Z,4.57
2022-08-28T20:56:40.411Z,4.85
2022-08-28T20:59:44.298Z,5.28
2022-08-28T21:02:46.239Z,4.90
2022-08-28T21:05:49.006Z,4.88
2022-08-28T21:08:53.273Z,4.70
2022-08-28T21:11:55.393Z,5.10
2022-08-28T21:14:57.531Z,5.10
2022-08-28T21:17:59.783Z,5.07
2022-08-28T21:21:06.161Z,4.47
2022-08-28T21:24:11.032Z,5.20
2022-08-28T21:27:12.965Z,5.28
2022-08-28T21:30:17.610Z,4.80
2022-08-28T21:33:20.216Z,4.75
2022-08-28T21:36:22.318Z,5.10
2022-08-28T21:39:24.259Z,5.50
2022-08-28T21:42:27.568Z,5.07
2022-08-28T21:45:29.494Z,5.65
2022-08-28T21:48:32.026Z,5.45
2022-08-28T21:51:34.047Z,4.90
2022-08-28T21:54:36.882Z,4.97
2022-08-28T21:57:38.937Z,5.47
2022-08-28T22:00:41.148Z,5.30
2022-08-28T22:03:43.156Z,5.47
2022-08-28T22:06:45.267Z,4.78
2022-08-28T22:09:47.337Z,5.35
2022-08-28T22:12:49.452Z,4.88
2022-08-28T22:15:51.457Z,4.97
2022-08-28T22:18:53.767Z,5.63
2022-08-28T22:22:14.489Z,5.13
2022-08-28T22:25:16.638Z,5.32
2022-08-28T22:28:18.680Z,5.10
2022-08-28T22:31:20.969Z,4.45
2022-08-28T22:34:22.908Z,5.50
2022-08-28T22:37:25.877Z,5.38
2022-08-28T22:40:27.940Z,5.25
2022-08-28T22:43:30.134Z,5.22
2022-08-28T22:46:32.055Z,5.05
2022-08-28T22:49:34.700Z,5.75
2022-08-28T22:52:44.923Z,5.72
2022-08-28T22:55:47.018Z,6.10
2022-08-28T22:58:48.893Z,5.15
2022-08-28T23:01:51.092Z,5.72
2022-08-28T23:04:52.948Z,5.30
2022-08-28T23:07:55.445Z,5.50
2022-08-28T23:10:59.221Z,5.60
2022-08-28T23:14:02.371Z,4.78
2022-08-28T23:17:04.476Z,5.57
2022-08-28T23:20:08.603Z,5.72
2022-08-28T23:23:12.589Z,5.50
2022-08-28T23:26:15.867Z,5.05
2022-08-28T23:29:18.123Z,5.07
2022-08-28T23:32:20.692Z,4.88
2022-08-28T23:35:23.034Z,5.20
2022-08-28T23:38:25.782Z,5.97
2022-08-28T23:41:28.122Z,4.80
2022-08-28T23:44:30.451Z,4.93
2022-08-28T23:47:33.342Z,5.68
2022-08-28T23:50:35.981Z,6.40
2022-08-28T23:53:39.392Z,5.72
2022-08-28T23:56:41.847Z,5.55
2022-08-28T23:59:44.278Z,5.25
